createdAt,value
2023-03-15T00:01:37.505Z,9.30
2023-03-15T00:06:41.323Z,9.31
2023-03-15T00:11:45.011Z,9.20
2023-03-15T00:16:49.084Z,9.28
2023-03-15T00:21:52.738Z,9.31
2023-03-15T00:26:55.831Z,9.42
2023-03-15T00:31:59.798Z,9.30
2023-03-15T00:37:02.867Z,9.10
2023-03-15T00:42:05.972Z,8.83
2023-03-15T00:47:10.670Z,8.74
2023-03-15T00:52:14.135Z,8.75
2023-03-15T00:57:18.235Z,8.71
2023-03-15T01:02:22.674Z,8.70
2023-03-15T01:07:25.839Z,8.66
2023-03-15T01:12:29.932Z,8.71
2023-03-15T01:17:33.552Z,8.66
2023-03-15T01:22:38.223Z,8.24
2023-03-15T01:27:41.257Z,7.86
2023-03-15T01:32:44.954Z,7.51
2023-03-15T01:37:53.308Z,7.18
2023-03-15T01:43:05.674Z,7.06
2023-03-15T01:48:08.890Z,7.29
2023-03-15T01:53:13.412Z,7.01
2023-03-15T01:58:17.196Z,6.71
2023-03-15T02:03:34.610Z,6.63
2023-03-15T02:08:44.091Z,6.69
2023-03-15T02:13:49.978Z,6.53
2023-03-15T02:18:53.832Z,6.09
2023-03-15T02:24:18.516Z,6.41
2023-03-15T02:29:24.384Z,5.91
2023-03-15T02:34:27.430Z,5.50
2023-03-15T02:39:30.706Z,4.98
2023-03-15T02:44:36.915Z,4.75
2023-03-15T02:49:42.841Z,4.28
2023-03-15T02:54:46.867Z,4.20
2023-03-15T02:59:55.236Z,4.54
2023-03-15T03:04:58.329Z,4.90
2023-03-15T03:10:01.572Z,5.19
2023-03-15T03:15:12.463Z,5.24
2023-03-15T03:20:17.099Z,5.17
2023-03-15T03:25:27.561Z,5.11
2023-03-15T03:30:31.508Z,6.04
2023-03-15T03:35:34.752Z,6.93
2023-03-15T03:40:41.580Z,7.42
2023-03-15T03:45:44.737Z,7.43
2023-03-15T03:50:48.089Z,6.76
2023-03-15T03:55:51.528Z,6.82
2023-03-15T04:00:58.111Z,6.69
2023-03-15T04:06:05.887Z,6.47
2023-03-15T04:11:17.778Z,7.20
2023-03-15T04:16:27.018Z,7.19
2023-03-15T04:21:37.415Z,6.60
2023-03-15T04:27:03.114Z,6.35
2023-03-15T04:32:18.373Z,6.03
2023-03-15T04:37:38.661Z,6.19
2023-03-15T04:43:06.184Z,6.57
2023-03-15T04:48:25.381Z,6.69
2023-03-15T04:53:43.460Z,6.72
2023-03-15T04:58:46.603Z,6.64
2023-03-15T05:04:19.014Z,6.78
2023-03-15T05:09:42.460Z,6.88
2023-03-15T05:14:54.509Z,6.83
2023-03-15T05:20:29.837Z,6.81
2023-03-15T05:25:56.920Z,6.85
2023-03-15T05:31:05.848Z,6.85
2023-03-15T05:36:27.922Z,6.88
2023-03-15T05:41:52.028Z,7.04
2023-03-15T05:47:16.196Z,7.08
2023-03-15T05:52:45.096Z,7.34
2023-03-15T05:57:56.871Z,7.44
2023-03-15T06:03:20.125Z,7.53
2023-03-15T06:08:40.004Z,7.61
2023-03-15T06:13:43.918Z,7.94
2023-03-15T06:18:54.753Z,8.26
2023-03-15T06:23:58.793Z,8.71
2023-03-15T06:29:02.511Z,10.42
2023-03-15T06:34:06.483Z,11.82
2023-03-15T06:39:12.386Z,12.64
2023-03-15T06:44:15.677Z,13.12
2023-03-15T06:49:19.258Z,13.62
2023-03-15T06:54:22.426Z,13.31
2023-03-15T06:59:26.081Z,14.03
2023-03-15T07:04:29.778Z,13.85
2023-03-15T07:09:32.942Z,14.00
2023-03-15T07:14:36.726Z,14.75
2023-03-15T07:19:50.123Z,14.43
2023-03-15T07:24:54.676Z,14.89
2023-03-15T07:29:57.844Z,14.26
2023-03-15T07:35:01.418Z,12.65
2023-03-15T07:40:07.200Z,13.33
2023-03-15T07:45:11.224Z,14.60
2023-03-15T07:50:17.263Z,15.42
2023-03-15T07:55:20.524Z,15.48
2023-03-15T08:00:24.903Z,16.41
2023-03-15T08:05:29.190Z,16.75
2023-03-15T08:10:33.233Z,17.16
2023-03-15T08:15:36.491Z,15.50
2023-03-15T08:20:39.532Z,17.01
2023-03-15T08:25:46.176Z,17.94
2023-03-15T08:30:49.403Z,17.73
2023-03-15T08:35:54.808Z,17.88
2023-03-15T08:40:58.900Z,18.01
2023-03-15T08:46:02.319Z,18.24
2023-03-15T08:51:06.886Z,18.12
2023-03-15T08:56:10.163Z,18.61
2023-03-15T09:01:14.086Z,17.89
2023-03-15T09:06:19.237Z,17.27
2023-03-15T09:11:23.371Z,16.53
2023-03-15T09:16:26.994Z,14.59
2023-03-15T09:21:32.036Z,13.02
2023-03-15T09:26:35.168Z,12.80
2023-03-15T09:31:38.310Z,13.51
2023-03-15T09:36:41.580Z,14.04
2023-03-15T09:41:47.911Z,15.91
2023-03-15T09:47:02.065Z,15.33
2023-03-15T09:52:33.770Z,15.95
2023-03-15T09:57:59.825Z,17.46
2023-03-15T10:03:10.106Z,17.92
2023-03-15T10:08:17.689Z,16.75
2023-03-15T10:13:48.234Z,18.12
2023-03-15T10:19:07.277Z,15.84
2023-03-15T10:24:37.965Z,14.61
2023-03-15T10:29:41.240Z,16.67
2023-03-15T10:34:56.025Z,17.32
2023-03-15T10:39:59.958Z,17.75
2023-03-15T10:45:24.406Z,18.43
2023-03-15T10:50:29.375Z,18.84
2023-03-15T10:55:45.296Z,18.19
2023-03-15T11:00:51.698Z,16.33
2023-03-15T11:05:57.734Z,15.66
2023-03-15T11:11:01.209Z,15.41
2023-03-15T11:16:21.053Z,14.60
2023-03-15T11:21:43.166Z,14.72
2023-03-15T11:26:52.039Z,14.57
2023-03-15T11:31:57.454Z,13.82
2023-03-15T11:37:08.928Z,14.29
2023-03-15T11:42:23.553Z,14.35
2023-03-15T11:47:59.338Z,14.09
2023-03-15T11:53:07.148Z,13.72
2023-03-15T11:58:35.890Z,14.50
2023-03-15T12:03:45.625Z,15.15
2023-03-15T12:08:52.014Z,16.42
2023-03-15T12:13:57.867Z,17.63
2023-03-15T12:19:15.022Z,16.94
2023-03-15T12:24:29.218Z,17.29
2023-03-15T12:29:35.112Z,18.62
2023-03-15T12:34:44.250Z,20.80
2023-03-15T12:40:19.267Z,15.88
2023-03-15T12:45:28.340Z,15.34
2023-03-15T12:50:46.364Z,14.89
2023-03-15T12:55:54.081Z,14.95
2023-03-15T13:01:03.748Z,14.80
2023-03-15T13:06:28.095Z,14.36
2023-03-15T13:11:39.613Z,14.45
2023-03-15T13:16:54.900Z,16.20
2023-03-15T13:22:18.324Z,16.76
2023-03-15T13:27:36.900Z,17.44
2023-03-15T13:32:40.236Z,17.94
2023-03-15T13:37:45.399Z,18.14
2023-03-15T13:42:48.584Z,19.21
2023-03-15T13:47:51.644Z,18.96
2023-03-15T13:52:56.791Z,19.05
2023-03-15T13:58:05.291Z,19.00
2023-03-15T14:03:17.727Z,18.39
2023-03-15T14:08:27.793Z,17.37
2023-03-15T14:13:34.500Z,16.96
2023-03-15T14:18:41.877Z,17.30
2023-03-15T14:23:48.712Z,18.27
2023-03-15T14:29:02.346Z,16.91
2023-03-15T14:34:10.474Z,15.98
2023-03-15T14:39:43.149Z,15.18
2023-03-15T14:44:46.702Z,15.65
2023-03-15T14:49:50.188Z,15.98
2023-03-15T14:54:53.924Z,14.85
2023-03-15T14:59:57.008Z,13.89
2023-03-15T15:05:04.372Z,13.36
2023-03-15T15:10:07.781Z,12.76
2023-03-15T15:15:22.434Z,12.32
2023-03-15T15:20:25.848Z,12.49
2023-03-15T15:25:31.039Z,11.99
2023-03-15T15:30:34.822Z,12.48
2023-03-15T15:35:38.790Z,12.14
2023-03-15T15:40:42.876Z,12.62
2023-03-15T15:46:12.731Z,13.21
2023-03-15T15:51:22.075Z,12.63
2023-03-15T15:56:32.277Z,12.29
2023-03-15T16:01:36.542Z,11.98
2023-03-15T16:06:42.876Z,12.32
2023-03-15T16:11:46.261Z,11.48
2023-03-15T16:16:50.429Z,11.57
2023-03-15T16:21:54.780Z,11.50
2023-03-15T16:27:08.929Z,11.35
2023-03-15T16:32:32.851Z,10.80
2023-03-15T16:37:40.577Z,10.54
2023-03-15T16:42:44.654Z,10.56
2023-03-15T16:47:48.862Z,10.48
2023-03-15T16:52:56.779Z,10.13
2023-03-15T16:58:17.960Z,9.88
2023-03-15T17:03:21.828Z,9.77
2023-03-15T17:08:25.650Z,9.58
2023-03-15T17:13:30.546Z,9.42
2023-03-15T17:18:35.055Z,9.31
2023-03-15T17:23:38.104Z,9.14
2023-03-15T17:28:43.692Z,9.07
2023-03-15T17:33:47.220Z,8.88
2023-03-15T17:38:50.686Z,8.78
2023-03-15T17:43:54.579Z,8.64
2023-03-15T17:48:58.609Z,8.45
2023-03-15T17:54:02.749Z,8.86
2023-03-15T17:59:06.167Z,8.69
2023-03-15T18:04:13.298Z,8.39
2023-03-15T18:09:16.448Z,8.22
2023-03-15T18:14:19.569Z,8.23
2023-03-15T18:19:23.818Z,8.52
2023-03-15T18:24:28.036Z,8.27
2023-03-15T18:29:32.082Z,8.23
2023-03-15T18:34:42.737Z,8.19
2023-03-15T18:39:51.400Z,8.23
2023-03-15T18:44:55.317Z,8.44
2023-03-15T18:50:09.821Z,9.47
2023-03-15T18:55:15.481Z,9.13
2023-03-15T19:00:27.172Z,9.23
2023-03-15T19:05:32.554Z,9.49
2023-03-15T19:10:36.170Z,9.04
2023-03-15T19:15:40.216Z,8.96
2023-03-15T19:20:43.444Z,8.27
2023-03-15T19:25:48.097Z,8.39
2023-03-15T19:30:51.531Z,8.49
2023-03-15T19:35:55.295Z,8.00
2023-03-15T19:41:03.885Z,7.53
2023-03-15T19:46:08.414Z,7.50
2023-03-15T19:51:11.618Z,7.46
2023-03-15T19:56:15.450Z,8.04
2023-03-15T20:01:18.810Z,8.33
2023-03-15T20:06:22.421Z,8.52
2023-03-15T20:11:26.485Z,8.30
2023-03-15T20:16:29.778Z,8.33
2023-03-15T20:21:34.012Z,8.37
2023-03-15T20:26:37.323Z,8.07
2023-03-15T20:31:41.477Z,8.02
2023-03-15T20:36:45.930Z,7.66
2023-03-15T20:41:50.578Z,7.30
2023-03-15T20:46:57.106Z,7.03
2023-03-15T20:52:01.813Z,7.01
2023-03-15T20:57:07.214Z,6.86
2023-03-15T21:02:15.148Z,6.96
2023-03-15T21:07:18.745Z,6.45
2023-03-15T21:12:23.231Z,5.95
2023-03-15T21:17:27.394Z,5.57
2023-03-15T21:22:31.335Z,5.43
2023-03-15T21:27:34.740Z,5.40
2023-03-15T21:32:38.790Z,5.29
2023-03-15T21:37:42.618Z,5.07
2023-03-15T21:42:47.997Z,5.07
2023-03-15T21:47:52.944Z,5.06
2023-03-15T21:52:56.050Z,4.89
2023-03-15T21:58:02.182Z,4.66
2023-03-15T22:03:05.985Z,4.58
2023-03-15T22:08:09.550Z,4.74
2023-03-15T22:13:13.058Z,4.76
2023-03-15T22:18:16.923Z,4.64
2023-03-15T22:23:20.229Z,4.40
2023-03-15T22:28:25.462Z,4.38
2023-03-15T22:33:28.534Z,4.35
2023-03-15T22:38:37.962Z,4.19
2023-03-15T22:43:41.623Z,4.21
2023-03-15T22:48:44.972Z,4.39
2023-03-15T22:53:49.058Z,4.32
2023-03-15T22:58:55.720Z,4.26
2023-03-15T23:03:59.277Z,4.35
2023-03-15T23:09:05.490Z,4.00
2023-03-15T23:14:09.868Z,3.83
2023-03-15T23:19:13.732Z,3.75
2023-03-15T23:24:19.224Z,3.71
2023-03-15T23:29:24.018Z,3.70
2023-03-15T23:34:28.519Z,3.60
2023-03-15T23:39:32.211Z,3.55
2023-03-15T23:44:35.575Z,3.42
2023-03-15T23:49:38.799Z,3.53
2023-03-15T23:54:42.831Z,3.52
2023-03-15T23:59:46.416Z,3.36
